createdAt,value
2022-12-25T00:02:01.357Z,101585.81
2022-12-25T00:04:28.017Z,101542.53
2022-12-25T00:06:54.451Z,101595.91
2022-12-25T00:09:20.929Z,101545.94
2022-12-25T00:11:47.431Z,101588.25
2022-12-25T00:14:13.935Z,101592.81
2022-12-25T00:16:40.388Z,101591.22
2022-12-25T00:19:06.931Z,101577.19
2022-12-25T00:21:33.355Z,101577.69
2022-12-25T00:23:59.841Z,101579.00
2022-12-25T00:26:27.729Z,101581.59
2022-12-25T00:28:55.878Z,101529.41
2022-12-25T00:31:23.318Z,101539.59
2022-12-25T00:33:51.276Z,101578.19
2022-12-25T00:36:20.615Z,101579.81
2022-12-25T00:38:47.090Z,101586.66
2022-12-25T00:41:19.558Z,101588.25
2022-12-25T00:43:46.048Z,101580.28
2022-12-25T00:46:13.166Z,101570.47
2022-12-25T00:48:40.371Z,101510.28
2022-12-25T00:51:10.498Z,101506.72
2022-12-25T00:53:36.917Z,101520.97
2022-12-25T00:56:07.262Z,101582.47
2022-12-25T00:58:34.742Z,101574.94
2022-12-25T01:01:01.982Z,101549.81
2022-12-25T01:03:29.155Z,101549.75
2022-12-25T01:05:58.505Z,101553.00
2022-12-25T01:08:25.959Z,101574.47
2022-12-25T01:10:57.332Z,101579.69
2022-12-25T01:13:24.290Z,101527.47
2022-12-25T01:15:51.109Z,101584.38
2022-12-25T01:18:22.252Z,101585.81
2022-12-25T01:20:48.742Z,101531.88
2022-12-25T01:23:15.783Z,101538.69
2022-12-25T01:25:42.288Z,101571.25
2022-12-25T01:28:09.108Z,101580.59
2022-12-25T01:30:35.613Z,101553.75
2022-12-25T01:33:02.085Z,101581.59
2022-12-25T01:35:28.530Z,101558.44
2022-12-25T01:37:54.968Z,101588.16
2022-12-25T01:40:21.395Z,101590.22
2022-12-25T01:42:47.896Z,101540.59
2022-12-25T01:45:23.522Z,101598.78
2022-12-25T01:47:50.391Z,101593.16
2022-12-25T01:50:17.439Z,101596.34
2022-12-25T01:52:44.831Z,101561.16
2022-12-25T01:55:11.886Z,101614.53
2022-12-25T01:57:39.619Z,101572.72
2022-12-25T02:00:08.433Z,101615.69
2022-12-25T02:02:36.218Z,101622.13
2022-12-25T02:05:12.351Z,101593.63
2022-12-25T02:07:39.801Z,101627.16
2022-12-25T02:10:07.738Z,101641.16
2022-12-25T02:12:35.454Z,101628.19
2022-12-25T02:15:17.864Z,101623.97
2022-12-25T02:17:59.455Z,101615.16
2022-12-25T02:20:39.709Z,101623.97
2022-12-25T02:23:33.658Z,101622.38
2022-12-25T02:26:24.768Z,101630.94
2022-12-25T02:29:12.125Z,101623.19
2022-12-25T02:31:45.977Z,101621.41
2022-12-25T02:34:31.785Z,101572.72
2022-12-25T02:37:04.207Z,101615.63
2022-12-25T02:39:57.425Z,101573.28
2022-12-25T02:42:41.755Z,101612.44
2022-12-25T02:45:08.593Z,101608.94
2022-12-25T02:47:36.914Z,101592.25
2022-12-25T02:50:06.298Z,101582.47
2022-12-25T02:52:32.789Z,101575.34
2022-12-25T02:55:11.368Z,101538.81
2022-12-25T02:57:44.040Z,101517.59
2022-12-25T03:00:12.009Z,101562.53
2022-12-25T03:02:42.125Z,101505.75
2022-12-25T03:05:13.535Z,101535.25
2022-12-25T03:07:43.885Z,101549.84
2022-12-25T03:10:14.192Z,101509.19
2022-12-25T03:12:51.575Z,101535.94
2022-12-25T03:15:19.693Z,101552.97
2022-12-25T03:17:46.296Z,101552.66
2022-12-25T03:20:12.962Z,101549.06
2022-12-25T03:22:42.878Z,101548.56
2022-12-25T03:25:09.525Z,101555.06
2022-12-25T03:27:37.527Z,101545.00
2022-12-25T03:30:04.538Z,101543.69
2022-12-25T03:33:18.070Z,101514.94
2022-12-25T03:36:05.117Z,101521.56
2022-12-25T03:38:31.554Z,101530.94
2022-12-25T03:41:20.880Z,101509.53
2022-12-25T03:44:03.010Z,101514.53
2022-12-25T03:46:34.615Z,101503.84
2022-12-25T03:49:10.210Z,101503.84
2022-12-25T03:51:39.615Z,101467.34
2022-12-25T03:54:09.953Z,101485.78
2022-12-25T03:56:38.159Z,101463.75
2022-12-25T03:59:04.618Z,101500.88
2022-12-25T04:01:31.371Z,101509.84
2022-12-25T04:03:58.056Z,101508.69
2022-12-25T04:06:24.567Z,101519.44
2022-12-25T04:08:51.154Z,101517.47
2022-12-25T04:11:18.410Z,101472.53
2022-12-25T04:13:45.035Z,101515.06
2022-12-25T04:16:11.471Z,101515.56
2022-12-25T04:18:38.098Z,101469.34
2022-12-25T04:21:04.605Z,101505.81
2022-12-25T04:23:31.212Z,101459.09
2022-12-25T04:25:58.701Z,101499.69
2022-12-25T04:28:25.299Z,101497.16
2022-12-25T04:30:51.775Z,101508.41
2022-12-25T04:33:18.299Z,101499.44
2022-12-25T04:35:48.765Z,101495.34
2022-12-25T04:38:15.316Z,101485.31
2022-12-25T04:40:41.724Z,101491.34
2022-12-25T04:43:08.125Z,101499.56
2022-12-25T04:45:34.515Z,101500.78
2022-12-25T04:48:01.017Z,101503.69
2022-12-25T04:50:27.615Z,101492.47
2022-12-25T04:52:54.111Z,101479.97
2022-12-25T04:55:20.680Z,101486.09
2022-12-25T04:57:47.277Z,101497.16
2022-12-25T05:00:14.069Z,101489.28
2022-12-25T05:02:40.880Z,101475.94
2022-12-25T05:05:07.790Z,101486.81
2022-12-25T05:07:34.232Z,101476.00
2022-12-25T05:10:00.752Z,101470.56
2022-12-25T05:12:27.222Z,101447.53
2022-12-25T05:14:53.634Z,101460.25
2022-12-25T05:17:20.176Z,101404.00
2022-12-25T05:19:46.749Z,101449.78
2022-12-25T05:22:13.234Z,101401.06
2022-12-25T05:24:39.930Z,101436.94
2022-12-25T05:27:06.474Z,101433.16
2022-12-25T05:29:32.900Z,101410.97
2022-12-25T05:31:59.412Z,101403.94
2022-12-25T05:34:25.978Z,101428.31
2022-12-25T05:36:52.441Z,101447.75
2022-12-25T05:39:19.075Z,101443.41
2022-12-25T05:41:45.648Z,101447.81
2022-12-25T05:44:12.342Z,101439.47
2022-12-25T05:46:38.847Z,101405.50
2022-12-25T05:49:05.349Z,101357.63
2022-12-25T05:51:32.374Z,101406.78
2022-12-25T05:53:59.120Z,101404.72
2022-12-25T05:56:25.638Z,101382.06
2022-12-25T05:58:52.310Z,101404.25
2022-12-25T06:01:25.900Z,101383.50
2022-12-25T06:03:53.036Z,101400.06
2022-12-25T06:06:19.664Z,101391.88
2022-12-25T06:08:46.892Z,101392.34
2022-12-25T06:11:14.923Z,101389.56
2022-12-25T06:13:42.029Z,101390.91
2022-12-25T06:16:11.321Z,101375.38
2022-12-25T06:18:40.198Z,101374.66
2022-12-25T06:21:11.950Z,101361.53
2022-12-25T06:23:39.259Z,101360.09
2022-12-25T06:26:08.059Z,101357.31
2022-12-25T06:28:34.768Z,101330.00
2022-12-25T06:31:23.528Z,101316.34
2022-12-25T06:33:50.464Z,101353.53
2022-12-25T06:36:20.373Z,101340.72
2022-12-25T06:38:47.119Z,101286.38
2022-12-25T06:41:17.023Z,101324.06
2022-12-25T06:43:43.825Z,101266.97
2022-12-25T06:46:12.316Z,101276.31
2022-12-25T06:48:40.540Z,101320.84
2022-12-25T06:51:07.875Z,101317.59
2022-12-25T06:53:39.670Z,101299.84
2022-12-25T06:56:09.742Z,101292.13
2022-12-25T06:58:36.228Z,101302.44
2022-12-25T07:01:10.254Z,101310.97
2022-12-25T07:03:36.757Z,101278.38
2022-12-25T07:06:03.307Z,101326.34
2022-12-25T07:08:29.805Z,101290.78
2022-12-25T07:10:56.284Z,101331.16
2022-12-25T07:13:22.738Z,101301.44
2022-12-25T07:15:56.003Z,101350.66
2022-12-25T07:18:22.568Z,101301.63
2022-12-25T07:20:49.108Z,101338.44
2022-12-25T07:23:15.772Z,101338.44
2022-12-25T07:25:42.231Z,101350.50
2022-12-25T07:28:08.821Z,101352.91
2022-12-25T07:30:35.290Z,101354.25
2022-12-25T07:33:01.873Z,101349.41
2022-12-25T07:35:28.386Z,101331.44
2022-12-25T07:37:54.870Z,101327.31
2022-12-25T07:40:21.346Z,101337.28
2022-12-25T07:42:47.883Z,101331.34
2022-12-25T07:45:14.397Z,101360.00
2022-12-25T07:47:40.845Z,101373.00
2022-12-25T07:50:07.808Z,101377.25
2022-12-25T07:52:39.499Z,101375.72
2022-12-25T07:55:10.415Z,101353.78
2022-12-25T07:57:37.028Z,101349.94
2022-12-25T08:00:04.852Z,101352.97
2022-12-25T08:02:31.509Z,101394.41
2022-12-25T08:04:58.419Z,101410.19
2022-12-25T08:07:24.879Z,101400.69
2022-12-25T08:09:51.335Z,101407.72
2022-12-25T08:12:17.904Z,101408.84
2022-12-25T08:14:44.506Z,101413.34
2022-12-25T08:17:11.118Z,101401.41
2022-12-25T08:19:37.706Z,101403.00
2022-12-25T08:22:04.233Z,101358.09
2022-12-25T08:24:30.772Z,101393.78
2022-12-25T08:26:57.277Z,101349.28
2022-12-25T08:29:23.807Z,101350.38
2022-12-25T08:31:50.376Z,101401.03
2022-12-25T08:34:16.896Z,101352.19
2022-12-25T08:36:43.322Z,101381.38
2022-12-25T08:39:10.024Z,101391.63
2022-12-25T08:41:36.626Z,101353.84
2022-12-25T08:44:04.510Z,101343.03
2022-12-25T08:46:31.167Z,101382.63
2022-12-25T08:48:58.005Z,101364.41
2022-12-25T08:51:26.035Z,101384.59
2022-12-25T08:53:53.511Z,101385.69
2022-12-25T08:56:20.399Z,101393.69
2022-12-25T08:58:47.227Z,101397.09
2022-12-25T09:01:13.958Z,101359.44
2022-12-25T09:03:40.535Z,101403.66
2022-12-25T09:06:09.817Z,101410.94
2022-12-25T09:08:41.093Z,101401.25
2022-12-25T09:11:14.823Z,101394.41
2022-12-25T09:13:41.827Z,101346.69
2022-12-25T09:16:10.911Z,101411.81
2022-12-25T09:18:37.530Z,101420.81
2022-12-25T09:21:07.897Z,101414.53
2022-12-25T09:23:34.652Z,101408.50
2022-12-25T09:26:02.653Z,101415.16
2022-12-25T09:28:29.358Z,101415.88
2022-12-25T09:30:56.070Z,101339.59
2022-12-25T09:33:22.862Z,101332.94
2022-12-25T09:35:54.604Z,101393.94
2022-12-25T09:38:21.299Z,101382.63
2022-12-25T09:40:49.738Z,101332.53
2022-12-25T09:43:18.917Z,101377.88
2022-12-25T09:45:45.638Z,101362.97
2022-12-25T09:48:16.410Z,101358.84
2022-12-25T09:51:04.251Z,101302.16
2022-12-25T09:53:38.567Z,101358.47
2022-12-25T09:56:17.412Z,101354.34
2022-12-25T09:58:44.179Z,101362.50
2022-12-25T10:01:44.782Z,101350.38
2022-12-25T10:04:29.687Z,101314.19
2022-12-25T10:07:21.533Z,101317.06
2022-12-25T10:10:25.784Z,101370.16
2022-12-25T10:13:15.225Z,101347.06
2022-12-25T10:16:11.039Z,101374.72
2022-12-25T10:18:42.360Z,101374.09
2022-12-25T10:21:13.436Z,101359.91
2022-12-25T10:23:48.980Z,101376.16
2022-12-25T10:26:21.508Z,101354.56
2022-12-25T10:29:14.299Z,101386.22
2022-12-25T10:31:41.684Z,101396.03
2022-12-25T10:34:10.854Z,101388.31
2022-12-25T10:36:37.704Z,101347.84
2022-12-25T10:39:04.209Z,101391.63
2022-12-25T10:42:09.084Z,101374.72
2022-12-25T10:44:36.040Z,101357.75
2022-12-25T10:47:04.712Z,101360.28
2022-12-25T10:49:39.103Z,101300.53
2022-12-25T10:52:24.924Z,101338.81
2022-12-25T10:54:52.264Z,101327.56
2022-12-25T10:57:22.309Z,101262.13
2022-12-25T10:59:51.550Z,101324.16
2022-12-25T11:02:30.466Z,101262.28
2022-12-25T11:05:05.421Z,101326.22
2022-12-25T11:07:34.924Z,101318.41
2022-12-25T11:10:05.936Z,101322.81
2022-12-25T11:12:38.037Z,101318.72
2022-12-25T11:15:33.668Z,101315.00
2022-12-25T11:18:00.429Z,101312.78
2022-12-25T11:20:26.961Z,101312.25
2022-12-25T11:22:53.466Z,101263.28
2022-12-25T11:25:25.331Z,101298.94
2022-12-25T11:28:00.139Z,101283.13
2022-12-25T11:30:29.860Z,101313.91
2022-12-25T11:33:00.894Z,101300.47
2022-12-25T11:35:31.143Z,101279.97
2022-12-25T11:37:57.717Z,101255.47
2022-12-25T11:40:41.029Z,101313.88
2022-12-25T11:43:26.878Z,101293.41
2022-12-25T11:46:18.130Z,101318.28
2022-12-25T11:48:51.743Z,101251.38
2022-12-25T11:51:20.074Z,101263.13
2022-12-25T11:53:54.072Z,101222.97
2022-12-25T11:56:30.282Z,101281.19
2022-12-25T11:59:16.376Z,101266.84
2022-12-25T12:01:50.672Z,101274.66
2022-12-25T12:04:42.646Z,101265.94
2022-12-25T12:07:21.823Z,101191.00
2022-12-25T12:09:58.215Z,101265.31
2022-12-25T12:12:49.550Z,101269.44
2022-12-25T12:15:18.983Z,101268.09
2022-12-25T12:17:45.707Z,101248.59
2022-12-25T12:20:26.560Z,101272.38
2022-12-25T12:22:53.406Z,101266.22
2022-12-25T12:25:22.616Z,101210.00
2022-12-25T12:28:05.240Z,101200.59
2022-12-25T12:30:35.564Z,101198.59
2022-12-25T12:33:05.100Z,101258.47
2022-12-25T12:35:38.787Z,101279.34
2022-12-25T12:38:20.940Z,101248.31
2022-12-25T12:41:00.981Z,101214.97
2022-12-25T12:43:36.010Z,101276.00
2022-12-25T12:46:31.035Z,101273.94
2022-12-25T12:49:33.507Z,101275.91
2022-12-25T12:52:25.889Z,101284.16
2022-12-25T12:55:03.035Z,101217.53
2022-12-25T12:57:32.266Z,101293.72
2022-12-25T13:00:04.786Z,101294.97
2022-12-25T13:02:38.288Z,101299.00
2022-12-25T13:05:36.335Z,101306.81
2022-12-25T13:08:44.825Z,101308.81
2022-12-25T13:11:24.553Z,101222.34
2022-12-25T13:13:54.028Z,101308.97
2022-12-25T13:16:26.813Z,101317.25
2022-12-25T13:18:55.334Z,101252.44
2022-12-25T13:21:30.020Z,101281.97
2022-12-25T13:24:02.258Z,101287.88
2022-12-25T13:26:29.625Z,101365.72
2022-12-25T13:28:56.388Z,101291.38
2022-12-25T13:31:29.459Z,101280.47
2022-12-25T13:34:00.761Z,101358.19
2022-12-25T13:36:29.673Z,101338.44
2022-12-25T13:38:58.676Z,101363.50
2022-12-25T13:41:30.638Z,101296.78
2022-12-25T13:43:58.810Z,101377.06
2022-12-25T13:46:27.270Z,101388.75
2022-12-25T13:49:01.297Z,101398.81
2022-12-25T13:51:28.412Z,101337.09
2022-12-25T13:54:07.177Z,101426.81
2022-12-25T13:56:34.562Z,101350.00
2022-12-25T13:59:01.252Z,101415.31
2022-12-25T14:01:28.973Z,101413.00
2022-12-25T14:03:55.887Z,101420.25
2022-12-25T14:06:28.763Z,101360.88
2022-12-25T14:08:57.666Z,101431.53
2022-12-25T14:11:27.409Z,101349.47
2022-12-25T14:14:00.419Z,101412.38
2022-12-25T14:16:28.951Z,101371.22
2022-12-25T14:19:01.276Z,101411.78
2022-12-25T14:21:37.891Z,101421.00
2022-12-25T14:24:12.573Z,101407.28
2022-12-25T14:26:39.185Z,101392.41
2022-12-25T14:29:05.588Z,101386.88
2022-12-25T14:31:33.547Z,101376.63
2022-12-25T14:34:02.071Z,101376.56
2022-12-25T14:36:30.783Z,101316.78
2022-12-25T14:39:04.247Z,101358.06
2022-12-25T14:41:40.288Z,101363.56
2022-12-25T14:44:37.005Z,101381.38
2022-12-25T14:47:18.189Z,101362.03
2022-12-25T14:49:45.133Z,101280.59
2022-12-25T14:52:42.107Z,101349.09
2022-12-25T14:55:25.029Z,101344.00
2022-12-25T14:57:55.276Z,101275.94
2022-12-25T15:00:22.232Z,101349.84
2022-12-25T15:02:53.212Z,101300.81
2022-12-25T15:05:23.828Z,101278.81
2022-12-25T15:08:18.223Z,101372.56
2022-12-25T15:11:02.248Z,101373.91
2022-12-25T15:13:31.030Z,101380.41
2022-12-25T15:15:59.330Z,101368.88
2022-12-25T15:18:30.879Z,101399.06
2022-12-25T15:20:57.739Z,101386.94
2022-12-25T15:23:24.349Z,101407.25
2022-12-25T15:25:51.837Z,101340.84
2022-12-25T15:28:18.547Z,101421.53
2022-12-25T15:30:45.113Z,101411.00
2022-12-25T15:33:17.042Z,101461.16
2022-12-25T15:35:44.242Z,101464.56
2022-12-25T15:38:12.516Z,101485.03
2022-12-25T15:40:40.024Z,101487.81
2022-12-25T15:43:14.366Z,101515.47
2022-12-25T15:45:47.414Z,101522.31
2022-12-25T15:48:13.871Z,101523.81
2022-12-25T15:50:40.293Z,101552.94
2022-12-25T15:53:06.731Z,101555.56
2022-12-25T15:55:34.594Z,101541.03
2022-12-25T15:58:01.049Z,101572.03
2022-12-25T16:00:27.690Z,101500.41
2022-12-25T16:02:54.358Z,101596.44
2022-12-25T16:05:21.397Z,101562.78
2022-12-25T16:07:48.781Z,101518.56
2022-12-25T16:10:18.263Z,101593.00
2022-12-25T16:12:45.846Z,101594.31
2022-12-25T16:15:13.815Z,101612.66
2022-12-25T16:17:40.452Z,101624.63
2022-12-25T16:20:08.041Z,101621.66
2022-12-25T16:22:34.516Z,101567.75
2022-12-25T16:25:01.028Z,101684.28
2022-12-25T16:27:27.499Z,101630.53
2022-12-25T16:29:53.975Z,101715.25
2022-12-25T16:32:20.470Z,101671.63
2022-12-25T16:34:48.647Z,101768.03
2022-12-25T16:37:15.253Z,101772.13
2022-12-25T16:39:41.724Z,101750.09
2022-12-25T16:42:08.146Z,101745.81
2022-12-25T16:44:36.572Z,101739.75
2022-12-25T16:47:03.118Z,101733.03
2022-12-25T16:49:29.751Z,101723.63
2022-12-25T16:51:56.212Z,101663.16
2022-12-25T16:54:22.736Z,101708.34
2022-12-25T16:56:49.212Z,101705.91
2022-12-25T16:59:15.691Z,101670.41
2022-12-25T17:01:42.208Z,101674.63
2022-12-25T17:04:09.614Z,101592.78
2022-12-25T17:06:36.389Z,101675.19
2022-12-25T17:09:04.195Z,101612.47
2022-12-25T17:11:31.891Z,101657.56
2022-12-25T17:14:00.617Z,101696.91
2022-12-25T17:16:29.470Z,101648.75
2022-12-25T17:18:58.215Z,101754.38
2022-12-25T17:21:25.444Z,101715.13
2022-12-25T17:23:58.037Z,101801.75
2022-12-25T17:26:28.171Z,101877.09
2022-12-25T17:28:54.828Z,101866.25
2022-12-25T17:31:21.339Z,101946.28
2022-12-25T17:33:47.908Z,101888.03
2022-12-25T17:36:17.554Z,101928.31
2022-12-25T17:38:44.417Z,101920.47
2022-12-25T17:41:13.964Z,101835.88
2022-12-25T17:43:40.471Z,101871.44
2022-12-25T17:46:09.050Z,101864.09
2022-12-25T17:48:35.584Z,101844.78
2022-12-25T17:51:14.002Z,101831.53
2022-12-25T17:53:42.804Z,101830.94
2022-12-25T17:56:10.516Z,101825.72
2022-12-25T17:58:37.797Z,101811.16
2022-12-25T18:01:08.687Z,101790.56
2022-12-25T18:03:35.377Z,101794.56
2022-12-25T18:06:03.711Z,101798.50
2022-12-25T18:08:35.325Z,101843.84
2022-12-25T18:11:07.653Z,101859.34
2022-12-25T18:13:34.179Z,101869.44
2022-12-25T18:16:05.581Z,101882.91
2022-12-25T18:18:32.582Z,101895.25
2022-12-25T18:20:59.549Z,101890.25
2022-12-25T18:23:26.315Z,101897.09
2022-12-25T18:25:52.803Z,101915.59
2022-12-25T18:28:19.380Z,101898.34
2022-12-25T18:30:47.134Z,101895.06
2022-12-25T18:33:13.751Z,101880.00
2022-12-25T18:35:42.653Z,101894.94
2022-12-25T18:38:11.299Z,101895.75
2022-12-25T18:40:46.131Z,101903.41
2022-12-25T18:43:13.757Z,101893.38
2022-12-25T18:45:40.702Z,101893.88
2022-12-25T18:48:08.308Z,101927.22
2022-12-25T18:50:40.080Z,101942.03
2022-12-25T18:53:07.312Z,101950.69
2022-12-25T18:55:33.818Z,101963.69
2022-12-25T18:58:00.274Z,101929.56
2022-12-25T19:00:26.752Z,101981.47
2022-12-25T19:02:57.954Z,101944.19
2022-12-25T19:05:24.907Z,102026.56
2022-12-25T19:07:51.410Z,102056.03
2022-12-25T19:10:17.936Z,102063.69
2022-12-25T19:12:44.442Z,102143.44
2022-12-25T19:15:11.161Z,102132.75
2022-12-25T19:17:37.827Z,102248.47
2022-12-25T19:20:04.901Z,102288.00
2022-12-25T19:22:31.618Z,102381.09
2022-12-25T19:24:58.432Z,102390.19
2022-12-25T19:27:24.981Z,102537.78
2022-12-25T19:29:51.499Z,102586.53
2022-12-25T19:32:18.038Z,102664.22
2022-12-25T19:34:44.575Z,102745.28
2022-12-25T19:37:11.057Z,102738.50
2022-12-25T19:39:37.886Z,102759.34
2022-12-25T19:42:04.461Z,102782.13
2022-12-25T19:44:30.978Z,102803.53
2022-12-25T19:46:57.452Z,102866.25
2022-12-25T19:49:23.912Z,102852.34
2022-12-25T19:51:50.364Z,102850.50
2022-12-25T19:54:17.213Z,102950.91
2022-12-25T19:56:43.720Z,103026.47
2022-12-25T19:59:12.087Z,103085.00
2022-12-25T20:01:39.062Z,103120.66
2022-12-25T20:04:09.898Z,103116.31
2022-12-25T20:06:38.499Z,103080.22
2022-12-25T20:09:11.223Z,103076.25
2022-12-25T20:11:37.801Z,103021.66
2022-12-25T20:14:05.928Z,103005.16
2022-12-25T20:16:33.050Z,103131.09
2022-12-25T20:18:59.578Z,103179.91
2022-12-25T20:21:26.471Z,103219.69
2022-12-25T20:23:53.853Z,103243.81
2022-12-25T20:26:25.001Z,103240.44
2022-12-25T20:28:52.183Z,103308.69
2022-12-25T20:31:21.759Z,103314.28
2022-12-25T20:33:48.359Z,103250.97
2022-12-25T20:36:15.580Z,103363.69
2022-12-25T20:38:42.410Z,103387.56
2022-12-25T20:41:30.586Z,103397.59
2022-12-25T20:43:57.746Z,103419.06
2022-12-25T20:46:25.426Z,103368.72
2022-12-25T20:48:52.090Z,103318.75
2022-12-25T20:51:21.790Z,103327.72
2022-12-25T20:53:49.002Z,103216.13
2022-12-25T20:56:17.797Z,103273.34
2022-12-25T20:58:44.436Z,103292.03
2022-12-25T21:01:14.620Z,103207.09
2022-12-25T21:03:41.898Z,103305.88
2022-12-25T21:06:09.611Z,103277.25
2022-12-25T21:08:36.719Z,103246.13
2022-12-25T21:11:04.662Z,103084.19
2022-12-25T21:13:34.565Z,103082.13
2022-12-25T21:16:01.143Z,103028.09
2022-12-25T21:18:28.215Z,102979.25
2022-12-25T21:20:57.083Z,102896.63
2022-12-25T21:23:24.956Z,102948.88
2022-12-25T21:25:51.368Z,102927.34
2022-12-25T21:28:18.055Z,102865.03
2022-12-25T21:30:44.545Z,102817.44
2022-12-25T21:33:16.691Z,102781.44
2022-12-25T21:35:43.658Z,102640.06
2022-12-25T21:38:10.153Z,102656.59
2022-12-25T21:40:37.872Z,102609.34
2022-12-25T21:43:04.624Z,102550.72
2022-12-25T21:45:32.895Z,102500.50
2022-12-25T21:48:03.325Z,102435.44
2022-12-25T21:50:32.520Z,102320.06
2022-12-25T21:53:02.489Z,102365.38
2022-12-25T21:55:29.021Z,102344.53
2022-12-25T21:57:55.576Z,102237.03
2022-12-25T22:00:22.085Z,102285.19
2022-12-25T22:02:49.526Z,102310.44
2022-12-25T22:05:16.329Z,102315.44
2022-12-25T22:07:42.823Z,102336.25
2022-12-25T22:10:09.317Z,102397.78
2022-12-25T22:12:35.817Z,102459.91
2022-12-25T22:15:04.638Z,102537.78
2022-12-25T22:17:34.349Z,102589.97
2022-12-25T22:20:00.840Z,102633.03
2022-12-25T22:22:29.847Z,102686.81
2022-12-25T22:24:58.979Z,102718.78
2022-12-25T22:27:29.328Z,102708.09
2022-12-25T22:29:55.790Z,102780.06
2022-12-25T22:32:22.317Z,102729.91
2022-12-25T22:34:48.953Z,102752.53
2022-12-25T22:37:17.855Z,102857.25
2022-12-25T22:39:44.910Z,102903.56
2022-12-25T22:42:12.270Z,102915.09
2022-12-25T22:44:38.794Z,102926.63
2022-12-25T22:47:05.462Z,102889.94
2022-12-25T22:49:31.991Z,102941.72
2022-12-25T22:51:58.587Z,102924.84
2022-12-25T22:54:28.340Z,102876.91
2022-12-25T22:56:54.900Z,102923.59
2022-12-25T22:59:22.150Z,102911.44
2022-12-25T23:01:49.944Z,102933.78
2022-12-25T23:04:17.428Z,102968.47
2022-12-25T23:06:44.211Z,102915.16
2022-12-25T23:09:17.578Z,102949.03
2022-12-25T23:11:48.987Z,102989.59
2022-12-25T23:14:15.750Z,102902.31
2022-12-25T23:16:42.273Z,102975.59
2022-12-25T23:19:11.898Z,102950.50
2022-12-25T23:21:39.329Z,102852.00
2022-12-25T23:24:06.314Z,102862.78
2022-12-25T23:26:32.834Z,102820.25
2022-12-25T23:28:59.350Z,102796.91
2022-12-25T23:31:29.569Z,102756.47
2022-12-25T23:33:56.214Z,102737.69
2022-12-25T23:36:22.790Z,102701.72
2022-12-25T23:38:49.262Z,102609.78
2022-12-25T23:41:16.135Z,102659.41
2022-12-25T23:43:42.751Z,102632.28
2022-12-25T23:46:09.329Z,102608.03
2022-12-25T23:48:35.869Z,102583.19
2022-12-25T23:51:03.881Z,102565.97
2022-12-25T23:53:30.988Z,102511.88
2022-12-25T23:55:57.693Z,102413.56
2022-12-25T23:58:25.657Z,102470.06
